sensor_id;sensor_type;location;lat;lon;timestamp;pressure;altitude;pressure_sealevel;temperature;humidity
34235;BME280;20500;49.856;20.290;2023-03-15T00:00:17;97442.28;;;9.18;67.98
34235;BME280;20500;49.856;20.290;2023-03-15T00:03:23;97447.34;;;9.21;67.84
34235;BME280;20500;49.856;20.290;2023-03-15T00:06:28;97452.89;;;9.23;67.89
34235;BME280;20500;49.856;20.290;2023-03-15T00:09:37;97461.14;;;9.25;67.84
34235;BME280;20500;49.856;20.290;2023-03-15T00:12:41;97472.70;;;9.26;67.93
34235;BME280;20500;49.856;20.290;2023-03-15T00:15:49;97480.66;;;9.28;67.76
34235;BME280;20500;49.856;20.290;2023-03-15T00:18:57;97485.98;;;9.30;67.74
34235;BME280;20500;49.856;20.290;2023-03-15T00:22:04;97497.92;;;9.33;67.71
34235;BME280;20500;49.856;20.290;2023-03-15T00:25:11;97507.04;;;9.35;67.68
34235;BME280;20500;49.856;20.290;2023-03-15T00:28:18;97520.14;;;9.40;67.70
34235;BME280;20500;49.856;20.290;2023-03-15T00:31:25;97528.64;;;9.45;67.71
34235;BME280;20500;49.856;20.290;2023-03-15T00:34:32;97536.21;;;9.49;67.66
34235;BME280;20500;49.856;20.290;2023-03-15T00:37:38;97561.69;;;9.50;67.67
34235;BME280;20500;49.856;20.290;2023-03-15T00:40:45;97578.87;;;9.48;67.70
34235;BME280;20500;49.856;20.290;2023-03-15T00:43:52;97585.73;;;9.39;67.73
34235;BME280;20500;49.856;20.290;2023-03-15T00:46:58;97593.48;;;9.30;68.03
34235;BME280;20500;49.856;20.290;2023-03-15T00:50:05;97609.98;;;9.24;68.13
34235;BME280;20500;49.856;20.290;2023-03-15T00:53:12;97619.55;;;9.13;68.03
34235;BME280;20500;49.856;20.290;2023-03-15T00:56:21;97639.83;;;8.94;67.87
34235;BME280;20500;49.856;20.290;2023-03-15T00:59:29;97658.64;;;8.74;67.92
34235;BME280;20500;49.856;20.290;2023-03-15T01:02:38;97667.55;;;8.56;67.86
34235;BME280;20500;49.856;20.290;2023-03-15T01:05:45;97686.50;;;8.41;67.90
34235;BME280;20500;49.856;20.290;2023-03-15T01:08:51;97699.80;;;8.20;67.84
34235;BME280;20500;49.856;20.290;2023-03-15T01:11:59;97708.59;;;7.97;67.76
34235;BME280;20500;49.856;20.290;2023-03-15T01:15:09;97717.02;;;7.77;67.73
34235;BME280;20500;49.856;20.290;2023-03-15T01:18:15;97729.39;;;7.61;67.63
34235;BME280;20500;49.856;20.290;2023-03-15T01:21:22;97741.17;;;7.45;67.67
34235;BME280;20500;49.856;20.290;2023-03-15T01:24:28;97758.05;;;7.33;67.48
34235;BME280;20500;49.856;20.290;2023-03-15T01:27:34;97763.34;;;7.17;67.49
34235;BME280;20500;49.856;20.290;2023-03-15T01:30:40;97773.27;;;7.04;67.44
34235;BME280;20500;49.856;20.290;2023-03-15T01:33:53;97783.50;;;6.91;67.56
34235;BME280;20500;49.856;20.290;2023-03-15T01:36:59;97789.67;;;6.82;67.60
34235;BME280;20500;49.856;20.290;2023-03-15T01:40:09;97796.95;;;6.76;67.65
34235;BME280;20500;49.856;20.290;2023-03-15T01:43:18;97803.46;;;6.73;67.73
34235;BME280;20500;49.856;20.290;2023-03-15T01:46:28;97814.29;;;6.64;67.51
34235;BME280;20500;49.856;20.290;2023-03-15T01:49:38;97827.04;;;6.48;67.56
34235;BME280;20500;49.856;20.290;2023-03-15T01:52:43;97841.65;;;6.32;67.55
34235;BME280;20500;49.856;20.290;2023-03-15T01:55:50;97856.35;;;6.19;67.62
34235;BME280;20500;49.856;20.290;2023-03-15T01:58:59;97881.38;;;6.11;67.77
34235;BME280;20500;49.856;20.290;2023-03-15T02:02:07;97893.10;;;6.06;67.64
34235;BME280;20500;49.856;20.290;2023-03-15T02:05:16;97897.61;;;6.00;67.73
34235;BME280;20500;49.856;20.290;2023-03-15T02:08:29;97892.36;;;5.87;67.71
34235;BME280;20500;49.856;20.290;2023-03-15T02:11:37;97898.27;;;5.75;67.85
34235;BME280;20500;49.856;20.290;2023-03-15T02:14:43;97912.71;;;5.70;67.83
34235;BME280;20500;49.856;20.290;2023-03-15T02:17:49;97919.04;;;5.62;67.77
34235;BME280;20500;49.856;20.290;2023-03-15T02:20:55;97928.05;;;5.55;67.89
34235;BME280;20500;49.856;20.290;2023-03-15T02:24:16;97926.85;;;5.49;67.87
34235;BME280;20500;49.856;20.290;2023-03-15T02:27:29;97928.52;;;5.37;67.84
34235;BME280;20500;49.856;20.290;2023-03-15T02:30:35;97938.80;;;5.33;67.96
34235;BME280;20500;49.856;20.290;2023-03-15T02:33:44;97945.64;;;5.29;67.92
34235;BME280;20500;49.856;20.290;2023-03-15T02:36:50;97951.65;;;5.29;67.97
34235;BME280;20500;49.856;20.290;2023-03-15T02:39:57;97959.36;;;5.24;67.97
34235;BME280;20500;49.856;20.290;2023-03-15T02:43:08;97967.05;;;5.23;68.03
34235;BME280;20500;49.856;20.290;2023-03-15T02:46:16;97973.88;;;5.24;68.16
34235;BME280;20500;49.856;20.290;2023-03-15T02:49:24;97978.45;;;5.23;68.02
34235;BME280;20500;49.856;20.290;2023-03-15T02:52:32;97984.59;;;5.16;67.96
34235;BME280;20500;49.856;20.290;2023-03-15T02:55:38;97992.17;;;5.08;67.93
34235;BME280;20500;49.856;20.290;2023-03-15T02:58:44;97997.75;;;5.02;67.99
34235;BME280;20500;49.856;20.290;2023-03-15T03:01:50;98003.44;;;4.94;67.84
34235;BME280;20500;49.856;20.290;2023-03-15T03:04:56;98008.06;;;4.92;67.76
34235;BME280;20500;49.856;20.290;2023-03-15T03:08:02;98014.27;;;4.86;67.66
34235;BME280;20500;49.856;20.290;2023-03-15T03:11:08;98016.00;;;4.82;67.72
34235;BME280;20500;49.856;20.290;2023-03-15T03:14:14;98035.35;;;4.81;67.79
34235;BME280;20500;49.856;20.290;2023-03-15T03:17:19;98043.58;;;4.78;67.74
34235;BME280;20500;49.856;20.290;2023-03-15T03:20:25;98045.14;;;4.70;67.67
34235;BME280;20500;49.856;20.290;2023-03-15T03:23:32;98042.67;;;4.65;67.78
34235;BME280;20500;49.856;20.290;2023-03-15T03:26:38;98039.41;;;4.67;67.88
34235;BME280;20500;49.856;20.290;2023-03-15T03:29:44;98037.56;;;4.66;67.76
34235;BME280;20500;49.856;20.290;2023-03-15T03:32:51;98037.18;;;4.62;67.77
34235;BME280;20500;49.856;20.290;2023-03-15T03:36:00;98032.58;;;4.59;67.79
34235;BME280;20500;49.856;20.290;2023-03-15T03:39:07;98039.15;;;4.58;67.89
34235;BME280;20500;49.856;20.290;2023-03-15T03:42:14;98047.88;;;4.55;67.79
34235;BME280;20500;49.856;20.290;2023-03-15T03:45:20;98053.33;;;4.53;67.88
34235;BME280;20500;49.856;20.290;2023-03-15T03:48:26;98058.81;;;4.54;67.94
34235;BME280;20500;49.856;20.290;2023-03-15T03:51:31;98068.56;;;4.55;67.89
34235;BME280;20500;49.856;20.290;2023-03-15T03:54:38;98070.70;;;4.51;67.66
34235;BME280;20500;49.856;20.290;2023-03-15T03:57:46;98076.17;;;4.43;67.75
34235;BME280;20500;49.856;20.290;2023-03-15T04:00:52;98083.08;;;4.37;67.87
34235;BME280;20500;49.856;20.290;2023-03-15T04:03:58;98082.48;;;4.36;67.88
34235;BME280;20500;49.856;20.290;2023-03-15T04:07:04;98084.14;;;4.34;67.72
34235;BME280;20500;49.856;20.290;2023-03-15T04:10:13;98084.23;;;4.28;67.67
34235;BME280;20500;49.856;20.290;2023-03-15T04:13:19;98094.13;;;4.23;67.92
34235;BME280;20500;49.856;20.290;2023-03-15T04:16:25;98095.98;;;4.23;67.90
34235;BME280;20500;49.856;20.290;2023-03-15T04:19:31;98103.22;;;4.21;67.88
34235;BME280;20500;49.856;20.290;2023-03-15T04:22:37;98108.09;;;4.15;67.94
34235;BME280;20500;49.856;20.290;2023-03-15T04:25:43;98115.66;;;4.15;68.01
34235;BME280;20500;49.856;20.290;2023-03-15T04:28:53;98118.52;;;4.15;67.94
34235;BME280;20500;49.856;20.290;2023-03-15T04:31:59;98115.41;;;4.12;67.81
34235;BME280;20500;49.856;20.290;2023-03-15T04:35:07;98119.66;;;4.13;68.02
34235;BME280;20500;49.856;20.290;2023-03-15T04:38:13;98118.06;;;4.16;68.07
34235;BME280;20500;49.856;20.290;2023-03-15T04:41:19;98116.21;;;4.15;67.75
34235;BME280;20500;49.856;20.290;2023-03-15T04:44:25;98117.66;;;4.05;67.74
34235;BME280;20500;49.856;20.290;2023-03-15T04:47:31;98117.11;;;4.00;67.87
34235;BME280;20500;49.856;20.290;2023-03-15T04:50:37;98123.82;;;3.96;67.95
34235;BME280;20500;49.856;20.290;2023-03-15T04:53:43;98135.37;;;3.97;68.01
34235;BME280;20500;49.856;20.290;2023-03-15T04:56:48;98141.08;;;3.98;67.96
34235;BME280;20500;49.856;20.290;2023-03-15T04:59:54;98144.45;;;3.96;67.82
34235;BME280;20500;49.856;20.290;2023-03-15T05:03:01;98147.01;;;3.92;67.80
34235;BME280;20500;49.856;20.290;2023-03-15T05:06:07;98147.16;;;3.90;67.88
34235;BME280;20500;49.856;20.290;2023-03-15T05:09:13;98150.03;;;3.90;67.94
34235;BME280;20500;49.856;20.290;2023-03-15T05:12:22;98155.80;;;3.92;68.07
34235;BME280;20500;49.856;20.290;2023-03-15T05:15:29;98163.07;;;3.93;68.03
34235;BME280;20500;49.856;20.290;2023-03-15T05:18:34;98170.34;;;3.94;67.96
34235;BME280;20500;49.856;20.290;2023-03-15T05:21:40;98173.10;;;3.95;68.05
34235;BME280;20500;49.856;20.290;2023-03-15T05:24:46;98178.24;;;3.97;68.13
34235;BME280;20500;49.856;20.290;2023-03-15T05:27:53;98188.59;;;3.98;68.31
34235;BME280;20500;49.856;20.290;2023-03-15T05:30:59;98197.44;;;3.97;68.21
34235;BME280;20500;49.856;20.290;2023-03-15T05:34:06;98199.89;;;3.96;68.27
34235;BME280;20500;49.856;20.290;2023-03-15T05:37:12;98201.67;;;3.97;68.33
34235;BME280;20500;49.856;20.290;2023-03-15T05:40:19;98204.59;;;3.94;68.24
34235;BME280;20500;49.856;20.290;2023-03-15T05:43:23;98210.73;;;3.90;68.24
34235;BME280;20500;49.856;20.290;2023-03-15T05:46:29;98223.58;;;3.87;68.24
34235;BME280;20500;49.856;20.290;2023-03-15T05:49:35;98231.98;;;3.85;68.30
34235;BME280;20500;49.856;20.290;2023-03-15T05:52:42;98234.45;;;3.87;68.47
34235;BME280;20500;49.856;20.290;2023-03-15T05:55:48;98236.96;;;3.90;68.47
34235;BME280;20500;49.856;20.290;2023-03-15T05:58:53;98233.05;;;3.90;68.39
34235;BME280;20500;49.856;20.290;2023-03-15T06:01:59;98238.64;;;3.87;68.26
34235;BME280;20500;49.856;20.290;2023-03-15T06:05:06;98246.64;;;3.87;68.36
34235;BME280;20500;49.856;20.290;2023-03-15T06:08:12;98258.36;;;3.90;68.33
34235;BME280;20500;49.856;20.290;2023-03-15T06:11:18;98266.70;;;3.87;68.28
34235;BME280;20500;49.856;20.290;2023-03-15T06:14:24;98277.13;;;3.89;68.39
34235;BME280;20500;49.856;20.290;2023-03-15T06:17:30;98288.22;;;3.91;68.32
34235;BME280;20500;49.856;20.290;2023-03-15T06:20:35;98286.70;;;3.90;68.25
34235;BME280;20500;49.856;20.290;2023-03-15T06:23:41;98287.66;;;3.87;68.20
34235;BME280;20500;49.856;20.290;2023-03-15T06:26:47;98286.48;;;3.87;68.24
34235;BME280;20500;49.856;20.290;2023-03-15T06:29:53;98290.21;;;3.87;68.22
34235;BME280;20500;49.856;20.290;2023-03-15T06:33:00;98296.77;;;3.88;68.08
34235;BME280;20500;49.856;20.290;2023-03-15T06:36:08;98298.91;;;3.90;68.12
34235;BME280;20500;49.856;20.290;2023-03-15T06:39:14;98299.77;;;3.94;68.22
34235;BME280;20500;49.856;20.290;2023-03-15T06:42:20;98308.55;;;3.99;68.12
34235;BME280;20500;49.856;20.290;2023-03-15T06:45:26;98315.79;;;3.97;67.88
34235;BME280;20500;49.856;20.290;2023-03-15T06:48:34;98319.56;;;3.99;68.20
34235;BME280;20500;49.856;20.290;2023-03-15T06:51:39;98319.14;;;4.06;68.10
34235;BME280;20500;49.856;20.290;2023-03-15T06:54:48;98324.30;;;4.08;67.99
34235;BME280;20500;49.856;20.290;2023-03-15T06:57:54;98330.17;;;4.09;67.86
34235;BME280;20500;49.856;20.290;2023-03-15T07:01:00;98337.91;;;4.09;67.71
34235;BME280;20500;49.856;20.290;2023-03-15T07:04:06;98344.04;;;4.10;67.69
34235;BME280;20500;49.856;20.290;2023-03-15T07:07:13;98349.73;;;4.10;67.49
34235;BME280;20500;49.856;20.290;2023-03-15T07:10:19;98356.72;;;4.06;67.32
34235;BME280;20500;49.856;20.290;2023-03-15T07:13:25;98358.77;;;4.03;67.35
34235;BME280;20500;49.856;20.290;2023-03-15T07:16:31;98359.34;;;4.01;67.23
34235;BME280;20500;49.856;20.290;2023-03-15T07:19:37;98361.17;;;3.99;67.23
34235;BME280;20500;49.856;20.290;2023-03-15T07:22:59;98363.41;;;4.00;67.27
34235;BME280;20500;49.856;20.290;2023-03-15T07:26:05;98370.66;;;3.99;67.12
34235;BME280;20500;49.856;20.290;2023-03-15T07:29:11;98368.79;;;3.95;66.98
34235;BME280;20500;49.856;20.290;2023-03-15T07:32:17;98365.73;;;3.88;66.92
34235;BME280;20500;49.856;20.290;2023-03-15T07:35:21;98365.16;;;3.79;66.86
34235;BME280;20500;49.856;20.290;2023-03-15T07:38:28;98365.98;;;3.75;66.96
34235;BME280;20500;49.856;20.290;2023-03-15T07:41:34;98368.20;;;3.78;66.96
34235;BME280;20500;49.856;20.290;2023-03-15T07:44:40;98368.20;;;3.81;66.88
34235;BME280;20500;49.856;20.290;2023-03-15T07:47:46;98369.77;;;3.83;66.81
34235;BME280;20500;49.856;20.290;2023-03-15T07:50:52;98375.26;;;3.87;66.78
34235;BME280;20500;49.856;20.290;2023-03-15T07:53:57;98380.68;;;3.92;66.79
34235;BME280;20500;49.856;20.290;2023-03-15T07:57:04;98389.48;;;3.98;66.67
34235;BME280;20500;49.856;20.290;2023-03-15T08:00:12;98393.24;;;4.03;66.84
34235;BME280;20500;49.856;20.290;2023-03-15T08:03:18;98396.95;;;4.11;67.00
34235;BME280;20500;49.856;20.290;2023-03-15T08:06:24;98396.52;;;4.18;67.08
34235;BME280;20500;49.856;20.290;2023-03-15T08:09:30;98400.41;;;4.22;67.02
34235;BME280;20500;49.856;20.290;2023-03-15T08:12:37;98407.17;;;4.25;67.03
34235;BME280;20500;49.856;20.290;2023-03-15T08:15:47;98405.64;;;4.27;66.88
34235;BME280;20500;49.856;20.290;2023-03-15T08:18:52;98405.09;;;4.31;66.96
34235;BME280;20500;49.856;20.290;2023-03-15T08:21:58;98409.73;;;4.36;66.99
34235;BME280;20500;49.856;20.290;2023-03-15T08:25:06;98408.66;;;4.42;67.02
34235;BME280;20500;49.856;20.290;2023-03-15T08:28:13;98404.90;;;4.50;67.04
34235;BME280;20500;49.856;20.290;2023-03-15T08:31:19;98399.79;;;4.59;67.08
34235;BME280;20500;49.856;20.290;2023-03-15T08:34:25;98403.29;;;4.71;67.07
34235;BME280;20500;49.856;20.290;2023-03-15T08:37:31;98404.17;;;4.77;67.00
34235;BME280;20500;49.856;20.290;2023-03-15T08:40:36;98407.27;;;4.87;67.09
34235;BME280;20500;49.856;20.290;2023-03-15T08:43:44;98413.95;;;5.00;67.04
34235;BME280;20500;49.856;20.290;2023-03-15T08:46:50;98419.60;;;5.12;66.88
34235;BME280;20500;49.856;20.290;2023-03-15T08:49:56;98423.35;;;5.10;66.51
34235;BME280;20500;49.856;20.290;2023-03-15T08:53:01;98424.14;;;5.05;66.48
34235;BME280;20500;49.856;20.290;2023-03-15T08:56:08;98431.11;;;5.02;66.25
34235;BME280;20500;49.856;20.290;2023-03-15T08:59:14;98438.40;;;5.03;66.43
34235;BME280;20500;49.856;20.290;2023-03-15T09:02:34;98442.49;;;5.08;66.35
34235;BME280;20500;49.856;20.290;2023-03-15T09:05:41;98441.17;;;5.10;66.17
34235;BME280;20500;49.856;20.290;2023-03-15T09:08:47;98439.31;;;5.06;66.06
34235;BME280;20500;49.856;20.290;2023-03-15T09:11:52;98445.75;;;5.04;65.94
34235;BME280;20500;49.856;20.290;2023-03-15T09:15:00;98444.25;;;5.03;65.84
34235;BME280;20500;49.856;20.290;2023-03-15T09:18:06;98451.02;;;4.99;65.72
34235;BME280;20500;49.856;20.290;2023-03-15T09:21:12;98450.64;;;4.99;65.77
34235;BME280;20500;49.856;20.290;2023-03-15T09:24:17;98452.75;;;5.01;65.67
34235;BME280;20500;49.856;20.290;2023-03-15T09:27:23;98454.54;;;5.06;65.48
34235;BME280;20500;49.856;20.290;2023-03-15T09:30:29;98457.25;;;5.06;65.41
34235;BME280;20500;49.856;20.290;2023-03-15T09:33:35;98454.19;;;5.08;65.38
34235;BME280;20500;49.856;20.290;2023-03-15T09:36:41;98462.14;;;5.13;65.43
34235;BME280;20500;49.856;20.290;2023-03-15T09:39:47;98465.32;;;5.17;65.21
34235;BME280;20500;49.856;20.290;2023-03-15T09:43:02;98469.79;;;5.20;65.19
34235;BME280;20500;49.856;20.290;2023-03-15T09:46:18;98473.13;;;5.28;64.98
34235;BME280;20500;49.856;20.290;2023-03-15T09:49:36;98477.69;;;5.32;64.87
34235;BME280;20500;49.856;20.290;2023-03-15T09:52:46;98475.81;;;5.34;64.79
34235;BME280;20500;49.856;20.290;2023-03-15T09:55:53;98475.05;;;5.38;64.59
34235;BME280;20500;49.856;20.290;2023-03-15T09:59:00;98481.94;;;5.40;64.50
34235;BME280;20500;49.856;20.290;2023-03-15T10:02:15;98480.75;;;5.37;64.40
34235;BME280;20500;49.856;20.290;2023-03-15T10:05:31;98484.87;;;5.39;64.44
34235;BME280;20500;49.856;20.290;2023-03-15T10:08:39;98481.87;;;5.40;64.24
34235;BME280;20500;49.856;20.290;2023-03-15T10:11:52;98486.23;;;5.33;64.21
34235;BME280;20500;49.856;20.290;2023-03-15T10:15:17;98490.23;;;5.32;64.07
34235;BME280;20500;49.856;20.290;2023-03-15T10:18:34;98493.15;;;5.32;64.00
34235;BME280;20500;49.856;20.290;2023-03-15T10:21:51;98495.70;;;5.30;63.94
34235;BME280;20500;49.856;20.290;2023-03-15T10:25:03;98499.36;;;5.35;64.01
34235;BME280;20500;49.856;20.290;2023-03-15T10:28:13;98499.80;;;5.32;63.84
34235;BME280;20500;49.856;20.290;2023-03-15T10:31:25;98506.11;;;5.35;63.87
34235;BME280;20500;49.856;20.290;2023-03-15T10:34:49;98509.62;;;5.43;63.97
34235;BME280;20500;49.856;20.290;2023-03-15T10:37:56;98515.28;;;5.49;63.70
34235;BME280;20500;49.856;20.290;2023-03-15T10:41:06;98520.13;;;5.51;63.45
34235;BME280;20500;49.856;20.290;2023-03-15T10:44:16;98523.30;;;5.53;63.38
34235;BME280;20500;49.856;20.290;2023-03-15T10:47:24;98518.49;;;5.56;63.33
34235;BME280;20500;49.856;20.290;2023-03-15T10:50:32;98525.30;;;5.65;63.35
34235;BME280;20500;49.856;20.290;2023-03-15T10:53:50;98522.59;;;5.72;63.18
34235;BME280;20500;49.856;20.290;2023-03-15T10:57:00;98522.02;;;5.72;63.06
34235;BME280;20500;49.856;20.290;2023-03-15T11:04:01;98523.38;;;5.85;62.94
34235;BME280;20500;49.856;20.290;2023-03-15T11:07:11;98526.58;;;5.88;62.89
34235;BME280;20500;49.856;20.290;2023-03-15T11:10:23;98520.68;;;5.96;62.83
34235;BME280;20500;49.856;20.290;2023-03-15T11:13:30;98515.09;;;6.02;62.41
34235;BME280;20500;49.856;20.290;2023-03-15T11:16:38;98516.30;;;5.97;62.52
34235;BME280;20500;49.856;20.290;2023-03-15T11:19:47;98523.74;;;5.88;62.42
34235;BME280;20500;49.856;20.290;2023-03-15T11:22:57;98521.34;;;5.80;61.96
34235;BME280;20500;49.856;20.290;2023-03-15T11:26:03;98521.98;;;5.72;61.85
34235;BME280;20500;49.856;20.290;2023-03-15T11:29:16;98519.54;;;5.77;61.84
34235;BME280;20500;49.856;20.290;2023-03-15T11:32:26;98514.89;;;5.84;61.87
34235;BME280;20500;49.856;20.290;2023-03-15T11:35:37;98515.77;;;5.93;61.72
34235;BME280;20500;49.856;20.290;2023-03-15T11:38:48;98518.58;;;6.03;61.47
34235;BME280;20500;49.856;20.290;2023-03-15T11:42:01;98521.45;;;6.12;61.35
34235;BME280;20500;49.856;20.290;2023-03-15T11:45:15;98523.91;;;6.11;61.11
34235;BME280;20500;49.856;20.290;2023-03-15T11:48:26;98526.05;;;6.10;60.95
34235;BME280;20500;49.856;20.290;2023-03-15T11:51:36;98526.15;;;6.09;60.74
34235;BME280;20500;49.856;20.290;2023-03-15T11:54:42;98530.27;;;6.07;60.73
34235;BME280;20500;49.856;20.290;2023-03-15T11:57:49;98539.28;;;6.04;60.52
34235;BME280;20500;49.856;20.290;2023-03-15T12:01:01;98541.20;;;6.05;60.50
34235;BME280;20500;49.856;20.290;2023-03-15T12:08:17;98538.36;;;6.23;60.33
34235;BME280;20500;49.856;20.290;2023-03-15T12:11:42;98540.09;;;6.27;60.24
34235;BME280;20500;49.856;20.290;2023-03-15T12:14:50;98537.98;;;6.32;60.28
34235;BME280;20500;49.856;20.290;2023-03-15T12:18:11;98536.55;;;6.38;60.09
34235;BME280;20500;49.856;20.290;2023-03-15T12:21:23;98531.95;;;6.45;59.90
34235;BME280;20500;49.856;20.290;2023-03-15T12:24:37;98530.36;;;6.51;59.66
34235;BME280;20500;49.856;20.290;2023-03-15T12:27:48;98531.16;;;6.39;59.33
34235;BME280;20500;49.856;20.290;2023-03-15T12:30:56;98531.47;;;6.38;59.75
34235;BME280;20500;49.856;20.290;2023-03-15T12:34:11;98529.51;;;6.47;59.60
34235;BME280;20500;49.856;20.290;2023-03-15T12:37:21;98524.98;;;6.56;59.22
34235;BME280;20500;49.856;20.290;2023-03-15T12:40:41;98530.35;;;6.61;59.19
34235;BME280;20500;49.856;20.290;2023-03-15T12:44:04;98532.92;;;6.69;58.91
34235;BME280;20500;49.856;20.290;2023-03-15T12:47:17;98537.41;;;6.75;58.96
34235;BME280;20500;49.856;20.290;2023-03-15T12:50:47;98537.55;;;6.81;58.91
34235;BME280;20500;49.856;20.290;2023-03-15T12:53:57;98542.07;;;6.80;58.72
34235;BME280;20500;49.856;20.290;2023-03-15T12:57:04;98543.68;;;6.58;58.72
34235;BME280;20500;49.856;20.290;2023-03-15T13:00:16;98548.52;;;6.48;58.50
34235;BME280;20500;49.856;20.290;2023-03-15T13:03:26;98547.80;;;6.47;58.33
34235;BME280;20500;49.856;20.290;2023-03-15T13:06:42;98548.70;;;6.56;58.10
34235;BME280;20500;49.856;20.290;2023-03-15T13:10:00;98550.63;;;6.65;58.10
34235;BME280;20500;49.856;20.290;2023-03-15T13:13:22;98550.88;;;6.66;57.96
34235;BME280;20500;49.856;20.290;2023-03-15T13:16:34;98548.84;;;6.62;58.02
34235;BME280;20500;49.856;20.290;2023-03-15T13:19:45;98550.33;;;6.45;57.67
34235;BME280;20500;49.856;20.290;2023-03-15T13:22:56;98546.16;;;6.33;57.56
34235;BME280;20500;49.856;20.290;2023-03-15T13:26:21;98543.95;;;6.42;57.57
34235;BME280;20500;49.856;20.290;2023-03-15T13:29:31;98548.11;;;6.47;57.36
34235;BME280;20500;49.856;20.290;2023-03-15T13:32:43;98548.81;;;6.47;57.27
34235;BME280;20500;49.856;20.290;2023-03-15T13:35:55;98554.39;;;6.52;57.18
34235;BME280;20500;49.856;20.290;2023-03-15T13:39:01;98562.09;;;6.61;57.06
34235;BME280;20500;49.856;20.290;2023-03-15T13:42:20;98562.19;;;6.67;56.87
34235;BME280;20500;49.856;20.290;2023-03-15T13:45:27;98564.46;;;6.62;56.74
34235;BME280;20500;49.856;20.290;2023-03-15T13:48:34;98574.13;;;6.58;56.75
34235;BME280;20500;49.856;20.290;2023-03-15T13:51:41;98579.60;;;6.56;56.91
34235;BME280;20500;49.856;20.290;2023-03-15T13:54:48;98584.20;;;6.57;56.77
34235;BME280;20500;49.856;20.290;2023-03-15T13:57:59;98585.65;;;6.53;56.64
34235;BME280;20500;49.856;20.290;2023-03-15T14:01:11;98590.25;;;6.44;56.38
34235;BME280;20500;49.856;20.290;2023-03-15T14:04:18;98592.60;;;6.36;56.48
34235;BME280;20500;49.856;20.290;2023-03-15T14:07:27;98595.25;;;6.21;56.57
34235;BME280;20500;49.856;20.290;2023-03-15T14:10:36;98601.89;;;6.13;56.34
34235;BME280;20500;49.856;20.290;2023-03-15T14:13:52;98604.11;;;6.13;56.02
34235;BME280;20500;49.856;20.290;2023-03-15T14:17:05;98602.98;;;6.08;55.80
34235;BME280;20500;49.856;20.290;2023-03-15T14:20:17;98603.04;;;6.03;55.95
34235;BME280;20500;49.856;20.290;2023-03-15T14:23:25;98603.21;;;6.04;55.99
34235;BME280;20500;49.856;20.290;2023-03-15T14:26:31;98603.39;;;6.09;56.06
34235;BME280;20500;49.856;20.290;2023-03-15T14:29:36;98605.63;;;6.09;55.87
34235;BME280;20500;49.856;20.290;2023-03-15T14:32:52;98607.50;;;6.04;55.87
34235;BME280;20500;49.856;20.290;2023-03-15T14:36:00;98610.92;;;6.03;55.75
34235;BME280;20500;49.856;20.290;2023-03-15T14:39:18;98610.42;;;5.99;55.62
34235;BME280;20500;49.856;20.290;2023-03-15T14:42:24;98603.73;;;5.91;55.51
34235;BME280;20500;49.856;20.290;2023-03-15T14:45:31;98607.52;;;5.89;55.76
34235;BME280;20500;49.856;20.290;2023-03-15T14:48:38;98613.38;;;5.90;55.69
34235;BME280;20500;49.856;20.290;2023-03-15T14:51:44;98613.08;;;5.87;55.53
34235;BME280;20500;49.856;20.290;2023-03-15T14:54:49;98613.15;;;5.85;55.72
34235;BME280;20500;49.856;20.290;2023-03-15T14:57:55;98621.80;;;5.85;55.52
34235;BME280;20500;49.856;20.290;2023-03-15T15:01:02;98625.16;;;5.84;55.66
34235;BME280;20500;49.856;20.290;2023-03-15T15:04:10;98622.88;;;5.77;55.36
34235;BME280;20500;49.856;20.290;2023-03-15T15:07:16;98628.52;;;5.71;55.25
34235;BME280;20500;49.856;20.290;2023-03-15T15:10:24;98629.14;;;5.63;54.92
34235;BME280;20500;49.856;20.290;2023-03-15T15:13:31;98630.51;;;5.54;55.02
34235;BME280;20500;49.856;20.290;2023-03-15T15:16:37;98636.80;;;5.49;55.08
34235;BME280;20500;49.856;20.290;2023-03-15T15:20:00;98640.62;;;5.47;54.95
34235;BME280;20500;49.856;20.290;2023-03-15T15:23:12;98640.04;;;5.47;55.06
34235;BME280;20500;49.856;20.290;2023-03-15T15:26:22;98640.71;;;5.46;54.92
34235;BME280;20500;49.856;20.290;2023-03-15T15:29:29;98640.43;;;5.38;54.99
34235;BME280;20500;49.856;20.290;2023-03-15T15:32:35;98634.39;;;5.27;54.81
34235;BME280;20500;49.856;20.290;2023-03-15T15:35:41;98633.95;;;5.17;54.64
34235;BME280;20500;49.856;20.290;2023-03-15T15:38:46;98634.23;;;5.15;54.84
34235;BME280;20500;49.856;20.290;2023-03-15T15:41:50;98636.55;;;5.11;54.84
34235;BME280;20500;49.856;20.290;2023-03-15T15:44:54;98638.90;;;5.08;54.74
34235;BME280;20500;49.856;20.290;2023-03-15T15:47:59;98643.80;;;5.06;54.61
34235;BME280;20500;49.856;20.290;2023-03-15T15:51:15;98648.59;;;5.06;54.63
34235;BME280;20500;49.856;20.290;2023-03-15T15:54:21;98652.15;;;5.05;54.39
34235;BME280;20500;49.856;20.290;2023-03-15T15:57:28;98657.92;;;5.01;54.46
34235;BME280;20500;49.856;20.290;2023-03-15T16:00:32;98663.86;;;5.01;54.49
34235;BME280;20500;49.856;20.290;2023-03-15T16:03:36;98670.48;;;5.00;54.39
34235;BME280;20500;49.856;20.290;2023-03-15T16:06:40;98672.54;;;4.94;54.47
34235;BME280;20500;49.856;20.290;2023-03-15T16:09:45;98674.73;;;4.94;54.50
34235;BME280;20500;49.856;20.290;2023-03-15T16:12:51;98674.33;;;4.92;54.49
34235;BME280;20500;49.856;20.290;2023-03-15T16:15:56;98675.13;;;4.89;54.49
34235;BME280;20500;49.856;20.290;2023-03-15T16:19:00;98675.67;;;4.86;54.52
34235;BME280;20500;49.856;20.290;2023-03-15T16:22:05;98681.82;;;4.80;54.44
34235;BME280;20500;49.856;20.290;2023-03-15T16:25:12;98687.74;;;4.77;54.51
34235;BME280;20500;49.856;20.290;2023-03-15T16:28:17;98689.40;;;4.73;54.49
34235;BME280;20500;49.856;20.290;2023-03-15T16:31:21;98697.27;;;4.66;54.33
34235;BME280;20500;49.856;20.290;2023-03-15T16:34:26;98700.44;;;4.61;54.48
34235;BME280;20500;49.856;20.290;2023-03-15T16:37:30;98704.70;;;4.58;54.40
34235;BME280;20500;49.856;20.290;2023-03-15T16:40:34;98706.89;;;4.54;54.39
34235;BME280;20500;49.856;20.290;2023-03-15T16:43:42;98713.02;;;4.51;54.49